Aérodrome :
LOGIN :

S'inscrire | Disclaimer

   EN    FR    IT 

 










Légende :    VFR   VFR Marginal   IFR   IFR Intensif   IFR Très Intensif
Visi : 
Plafond : 
>= 8 km
>= 3000ft
5 à 8 km
1000 à 3000 ft
1500m à 5 km
500 à 1000 ft
800 à 1500m
200 à 500 ft
< 800m
< 200 ft
Symboles :   Orages  Brouillard  Fortes neiges  Fortes précipitations  Vent > 20 kt
SIGMETs :   Divers  Orages  Givrage  Turbulence  Onde Orograph.  Cendres Volcan.







- Altitude de l'aérodrome : 390 ft
- Code IATA : NQY
- Voir les cartes d'approche


EGHQ - Newquay

DERNIER METAR :
  • 201420Z 17015KT 4000 -RADZ BR BKN003 14/13 Q1015

METARs EXPIRÉS :
  • 201350Z 17015KT 6000 -RADZ BKN003 14/13 Q1015
  • 201320Z 17017KT 5000 -RADZ BR BKN003 14/13 Q1016
  • 201250Z 17016KT 5000 -RADZ BKN005 14/13 Q1016
  • 201220Z 17016KT 4000 -RADZ BKN005 14/13 Q1016
  • 201150Z 17016KT 9000 -RADZ BKN005 14/13 Q1016

TAF TAF EGHQ
Valide du 20 à 12h jusqu'au 20 à 21h UTC


201053Z 2012/2021 17013KT 9999 SCT007
TEMPO 2012/2021 4000 RADZ BKN005
PROB40
TEMPO 2012/2020 1400 BKN003
Pas de NOTAMs connus pour ce terrain.



MET'MAP, la Météo Aéronautique d'un coup d'oeil ! - Copyright ORBIFLY Décembre 2007 - Disclaimer

ORBIFLY MET'MAP TEAM :

Programmation & Développement : Alexandra Zaïnal
Conception & Développement : Baudouin d'Aumeries
Co-Programmation & Développement : Marc-Olivier Méhu
Soutien technique & logistique : Manuel Goepfert

Contact : metmap@orbifly.com




SOURCES & CREDITS :

   NOAA